This is the latest recevied weather packets stored in our database for station/object YO8SKY. If no packets are shown the sender has not sent any weather packets the latest 10 day(s).
| Time | Temp. | Humidity | Pressure | Rain* | Wind** | Luminosity | Snow |
|---|---|---|---|---|---|---|---|
| 1778180553 | 17.78° C | 61% | 1014.1 hPa | 0 mm | - | - | - |
| 1778178933 | 18.33° C | 58% | 1014 hPa | 0 mm | - | - | - |
| 1778177313 | 19.44° C | 55% | 1013.8 hPa | 0 mm | - | - | - |
| 1778007362 | 18.33° C | 42% | 1012.9 hPa | 0 mm | - | - | - |
| 1778005741 | 18.89° C | 42% | 1012.6 hPa | 0 mm | - | - | - |
| 1778004121 | 20° C | 38% | 1012.4 hPa | 0 mm | - | - | - |
| 1778003042 | 20.56° C | 37% | 1012.2 hPa | 0 mm | - | - | - |
| 1778000341 | 23.89° C | 33% | 1012.2 hPa | 0 mm | - | - | - |
| 1777998721 | 25° C | 31% | 1011.9 hPa | 0 mm | - | - | - |
| 1777994402 | 26.67° C | 22% | 1012 hPa | 0 mm | - | - | - |
| 1777919011 | 18.89° C | 43% | 1015.2 hPa | 0 mm | - | - | - |
| 1777917931 | 19.44° C | 42% | 1015.3 hPa | 0 mm | - | - | - |
| 1777916851 | 20° C | 41% | 1015.1 hPa | 0 mm | - | - | - |
| 1777915771 | 20.56° C | 42% | 1014.9 hPa | 0 mm | - | - | - |
| 1777914151 | 23.33° C | 33% | 1014.9 hPa | 0 mm | - | - | - |
| 1777912532 | 24.44° C | 31% | 1014.8 hPa | 0 mm | - | - | - |
| 1777909832 | 25° C | 30% | 1014.9 hPa | 0 mm | - | - | - |
| 1777908751 | 25.56° C | 29% | 1014.9 hPa | 0 mm | - | - | - |
| 1777908211 | 25° C | 29% | 1015 hPa | 0 mm | - | - | - |
| 1777906051 | 25.56° C | 30% | 1015 hPa | 0 mm | - | - | - |
| 1777835339 | 12.78° C | 51% | 1018.5 hPa | 0 mm | - | - | - |
| 1777834799 | 13.33° C | 50% | 1018.3 hPa | 0 mm | - | - | - |
| 1777825408 | 17.78° C | 40% | 1018.8 hPa | 0 mm | - | - | - |
| 1777824868 | 17.78° C | 38% | 1018.8 hPa | 0 mm | - | - | - |
| 1777824328 | 17.78° C | 38% | 1018.9 hPa | 0 mm | - | - | - |
* Rain latest hour (hover to see other rain measurements)
** Current wind speed in m/s (hover to see current wind gust speed)